sensor_id;sensor_type;location;lat;lon;timestamp;P1;durP1;ratioP1;P2;durP2;ratioP2
68300;SDS011;55146;47.468;18.806;2023-06-19T00:02:13;9.60;;;6.53;;
68300;SDS011;55146;47.468;18.806;2023-06-19T00:04:39;11.83;;;7.93;;
68300;SDS011;55146;47.468;18.806;2023-06-19T00:07:04;14.07;;;8.90;;
68300;SDS011;55146;47.468;18.806;2023-06-19T00:09:30;11.27;;;8.17;;
68300;SDS011;55146;47.468;18.806;2023-06-19T00:11:55;11.10;;;7.90;;
68300;SDS011;55146;47.468;18.806;2023-06-19T00:14:20;13.60;;;9.17;;
68300;SDS011;55146;47.468;18.806;2023-06-19T00:16:46;14.00;;;8.07;;
68300;SDS011;55146;47.468;18.806;2023-06-19T00:19:11;11.83;;;8.37;;
68300;SDS011;55146;47.468;18.806;2023-06-19T00:21:37;11.68;;;8.20;;
68300;SDS011;55146;47.468;18.806;2023-06-19T00:24:03;10.57;;;7.93;;
68300;SDS011;55146;47.468;18.806;2023-06-19T00:26:29;11.00;;;8.68;;
68300;SDS011;55146;47.468;18.806;2023-06-19T00:28:54;11.07;;;8.17;;
68300;SDS011;55146;47.468;18.806;2023-06-19T00:31:20;11.77;;;8.67;;
68300;SDS011;55146;47.468;18.806;2023-06-19T00:33:45;13.80;;;9.47;;
68300;SDS011;55146;47.468;18.806;2023-06-19T00:36:14;13.60;;;8.50;;
68300;SDS011;55146;47.468;18.806;2023-06-19T00:38:45;13.27;;;8.55;;
68300;SDS011;55146;47.468;18.806;2023-06-19T00:41:11;11.63;;;8.82;;
68300;SDS011;55146;47.468;18.806;2023-06-19T00:43:36;13.67;;;8.37;;
68300;SDS011;55146;47.468;18.806;2023-06-19T00:46:02;12.73;;;8.70;;
68300;SDS011;55146;47.468;18.806;2023-06-19T00:48:28;13.20;;;7.90;;
68300;SDS011;55146;47.468;18.806;2023-06-19T00:50:58;11.43;;;8.85;;
68300;SDS011;55146;47.468;18.806;2023-06-19T00:53:23;12.50;;;8.95;;
68300;SDS011;55146;47.468;18.806;2023-06-19T00:55:50;11.43;;;7.80;;
68300;SDS011;55146;47.468;18.806;2023-06-19T00:58:17;11.35;;;7.97;;
68300;SDS011;55146;47.468;18.806;2023-06-19T01:00:44;11.55;;;8.25;;
68300;SDS011;55146;47.468;18.806;2023-06-19T01:03:09;10.50;;;7.80;;
68300;SDS011;55146;47.468;18.806;2023-06-19T01:05:34;10.43;;;8.33;;
68300;SDS011;55146;47.468;18.806;2023-06-19T01:08:03;10.80;;;8.37;;
68300;SDS011;55146;47.468;18.806;2023-06-19T01:10:30;13.30;;;8.17;;
68300;SDS011;55146;47.468;18.806;2023-06-19T01:13:00;13.05;;;8.63;;
68300;SDS011;55146;47.468;18.806;2023-06-19T01:15:33;11.93;;;8.70;;
68300;SDS011;55146;47.468;18.806;2023-06-19T01:18:00;11.12;;;7.75;;
68300;SDS011;55146;47.468;18.806;2023-06-19T01:20:27;11.75;;;9.00;;
68300;SDS011;55146;47.468;18.806;2023-06-19T01:22:53;16.27;;;8.90;;
68300;SDS011;55146;47.468;18.806;2023-06-19T01:25:21;13.43;;;8.93;;
68300;SDS011;55146;47.468;18.806;2023-06-19T01:27:48;11.02;;;9.07;;
68300;SDS011;55146;47.468;18.806;2023-06-19T01:30:13;13.07;;;8.47;;
68300;SDS011;55146;47.468;18.806;2023-06-19T01:35:30;11.60;;;8.23;;
68300;SDS011;55146;47.468;18.806;2023-06-19T01:37:59;14.23;;;9.52;;
68300;SDS011;55146;47.468;18.806;2023-06-19T01:40:25;11.30;;;8.38;;
68300;SDS011;55146;47.468;18.806;2023-06-19T01:42:52;14.98;;;8.88;;
68300;SDS011;55146;47.468;18.806;2023-06-19T01:45:19;13.25;;;8.88;;
68300;SDS011;55146;47.468;18.806;2023-06-19T01:47:45;12.53;;;8.43;;
68300;SDS011;55146;47.468;18.806;2023-06-19T01:50:11;13.77;;;9.13;;
68300;SDS011;55146;47.468;18.806;2023-06-19T01:52:37;14.37;;;9.07;;
68300;SDS011;55146;47.468;18.806;2023-06-19T01:55:03;14.30;;;8.77;;
68300;SDS011;55146;47.468;18.806;2023-06-19T01:57:29;11.17;;;8.50;;
68300;SDS011;55146;47.468;18.806;2023-06-19T01:59:55;13.00;;;8.48;;
68300;SDS011;55146;47.468;18.806;2023-06-19T02:02:20;12.10;;;8.80;;
68300;SDS011;55146;47.468;18.806;2023-06-19T02:04:46;13.35;;;8.75;;
68300;SDS011;55146;47.468;18.806;2023-06-19T02:07:11;9.73;;;8.03;;
68300;SDS011;55146;47.468;18.806;2023-06-19T02:09:37;14.30;;;8.37;;
68300;SDS011;55146;47.468;18.806;2023-06-19T02:12:04;10.80;;;8.35;;
68300;SDS011;55146;47.468;18.806;2023-06-19T02:14:29;12.00;;;7.50;;
68300;SDS011;55146;47.468;18.806;2023-06-19T02:16:55;10.77;;;8.90;;
68300;SDS011;55146;47.468;18.806;2023-06-19T02:19:20;11.60;;;8.53;;
68300;SDS011;55146;47.468;18.806;2023-06-19T02:21:45;11.73;;;7.80;;
68300;SDS011;55146;47.468;18.806;2023-06-19T02:24:11;13.07;;;8.73;;
68300;SDS011;55146;47.468;18.806;2023-06-19T02:26:36;11.43;;;7.80;;
68300;SDS011;55146;47.468;18.806;2023-06-19T02:29:01;11.40;;;8.40;;
68300;SDS011;55146;47.468;18.806;2023-06-19T02:31:27;11.97;;;8.70;;
68300;SDS011;55146;47.468;18.806;2023-06-19T02:33:52;11.33;;;8.33;;
68300;SDS011;55146;47.468;18.806;2023-06-19T02:36:17;11.43;;;8.23;;
68300;SDS011;55146;47.468;18.806;2023-06-19T02:38:47;11.55;;;7.62;;
68300;SDS011;55146;47.468;18.806;2023-06-19T02:41:13;15.27;;;8.10;;
68300;SDS011;55146;47.468;18.806;2023-06-19T02:43:39;11.90;;;8.50;;
68300;SDS011;55146;47.468;18.806;2023-06-19T02:46:05;11.82;;;8.10;;
68300;SDS011;55146;47.468;18.806;2023-06-19T02:48:31;14.50;;;8.97;;
68300;SDS011;55146;47.468;18.806;2023-06-19T02:50:56;11.05;;;8.40;;
68300;SDS011;55146;47.468;18.806;2023-06-19T02:53:22;11.33;;;8.00;;
68300;SDS011;55146;47.468;18.806;2023-06-19T02:55:47;12.43;;;7.60;;
68300;SDS011;55146;47.468;18.806;2023-06-19T02:58:12;12.10;;;7.77;;
68300;SDS011;55146;47.468;18.806;2023-06-19T03:00:38;12.00;;;8.60;;
68300;SDS011;55146;47.468;18.806;2023-06-19T03:03:04;12.85;;;8.85;;
68300;SDS011;55146;47.468;18.806;2023-06-19T03:05:29;13.13;;;8.97;;
68300;SDS011;55146;47.468;18.806;2023-06-19T03:07:54;13.30;;;8.17;;
68300;SDS011;55146;47.468;18.806;2023-06-19T03:10:20;15.50;;;8.70;;
68300;SDS011;55146;47.468;18.806;2023-06-19T03:12:45;12.70;;;8.57;;
68300;SDS011;55146;47.468;18.806;2023-06-19T03:15:11;11.77;;;7.97;;
68300;SDS011;55146;47.468;18.806;2023-06-19T03:17:36;11.53;;;8.90;;
68300;SDS011;55146;47.468;18.806;2023-06-19T03:20:02;11.77;;;8.55;;
68300;SDS011;55146;47.468;18.806;2023-06-19T03:22:29;11.93;;;7.72;;
68300;SDS011;55146;47.468;18.806;2023-06-19T03:24:54;12.83;;;8.57;;
68300;SDS011;55146;47.468;18.806;2023-06-19T03:27:19;12.77;;;8.10;;
68300;SDS011;55146;47.468;18.806;2023-06-19T03:29:45;11.70;;;8.37;;
68300;SDS011;55146;47.468;18.806;2023-06-19T03:32:10;13.27;;;8.43;;
68300;SDS011;55146;47.468;18.806;2023-06-19T03:34:36;11.90;;;8.57;;
68300;SDS011;55146;47.468;18.806;2023-06-19T03:37:01;10.67;;;7.73;;
68300;SDS011;55146;47.468;18.806;2023-06-19T03:39:26;12.00;;;8.48;;
68300;SDS011;55146;47.468;18.806;2023-06-19T03:41:52;10.97;;;8.03;;
68300;SDS011;55146;47.468;18.806;2023-06-19T03:44:17;11.43;;;7.83;;
68300;SDS011;55146;47.468;18.806;2023-06-19T03:46:42;13.70;;;8.83;;
68300;SDS011;55146;47.468;18.806;2023-06-19T03:49:08;11.73;;;7.93;;
68300;SDS011;55146;47.468;18.806;2023-06-19T03:51:34;11.52;;;8.57;;
68300;SDS011;55146;47.468;18.806;2023-06-19T03:54:00;12.27;;;8.10;;
68300;SDS011;55146;47.468;18.806;2023-06-19T03:56:25;13.02;;;8.98;;
68300;SDS011;55146;47.468;18.806;2023-06-19T03:58:51;11.70;;;8.37;;
68300;SDS011;55146;47.468;18.806;2023-06-19T04:01:16;13.30;;;8.13;;
68300;SDS011;55146;47.468;18.806;2023-06-19T04:03:42;12.07;;;9.30;;
68300;SDS011;55146;47.468;18.806;2023-06-19T04:06:07;12.32;;;9.23;;
68300;SDS011;55146;47.468;18.806;2023-06-19T04:08:33;12.27;;;9.17;;
68300;SDS011;55146;47.468;18.806;2023-06-19T04:10:58;13.43;;;9.00;;
68300;SDS011;55146;47.468;18.806;2023-06-19T04:13:23;11.88;;;8.52;;
68300;SDS011;55146;47.468;18.806;2023-06-19T04:15:51;13.63;;;8.60;;
68300;SDS011;55146;47.468;18.806;2023-06-19T04:18:17;13.65;;;8.82;;
68300;SDS011;55146;47.468;18.806;2023-06-19T04:20:42;15.23;;;9.27;;
68300;SDS011;55146;47.468;18.806;2023-06-19T04:23:08;12.57;;;9.23;;
68300;SDS011;55146;47.468;18.806;2023-06-19T04:25:34;14.73;;;9.70;;
68300;SDS011;55146;47.468;18.806;2023-06-19T04:27:59;13.00;;;8.70;;
68300;SDS011;55146;47.468;18.806;2023-06-19T04:30:28;13.88;;;9.30;;
68300;SDS011;55146;47.468;18.806;2023-06-19T04:32:53;15.43;;;8.77;;
68300;SDS011;55146;47.468;18.806;2023-06-19T04:35:19;16.52;;;9.73;;
68300;SDS011;55146;47.468;18.806;2023-06-19T04:37:45;12.97;;;9.43;;
68300;SDS011;55146;47.468;18.806;2023-06-19T04:40:10;15.87;;;9.93;;
68300;SDS011;55146;47.468;18.806;2023-06-19T04:42:36;15.07;;;9.77;;
68300;SDS011;55146;47.468;18.806;2023-06-19T04:45:03;16.08;;;10.45;;
68300;SDS011;55146;47.468;18.806;2023-06-19T04:47:32;14.67;;;8.80;;
68300;SDS011;55146;47.468;18.806;2023-06-19T04:49:58;15.65;;;9.35;;
68300;SDS011;55146;47.468;18.806;2023-06-19T04:52:24;12.80;;;9.27;;
68300;SDS011;55146;47.468;18.806;2023-06-19T04:54:49;14.40;;;9.33;;
68300;SDS011;55146;47.468;18.806;2023-06-19T04:57:15;11.87;;;9.10;;
68300;SDS011;55146;47.468;18.806;2023-06-19T04:59:41;13.40;;;10.10;;
68300;SDS011;55146;47.468;18.806;2023-06-19T05:02:07;16.65;;;9.45;;
68300;SDS011;55146;47.468;18.806;2023-06-19T05:04:32;14.07;;;10.70;;
68300;SDS011;55146;47.468;18.806;2023-06-19T05:06:58;15.43;;;10.33;;
68300;SDS011;55146;47.468;18.806;2023-06-19T05:09:24;14.05;;;10.38;;
68300;SDS011;55146;47.468;18.806;2023-06-19T05:11:50;17.60;;;10.90;;
68300;SDS011;55146;47.468;18.806;2023-06-19T05:14:15;13.17;;;10.27;;
68300;SDS011;55146;47.468;18.806;2023-06-19T05:16:40;18.67;;;10.47;;
68300;SDS011;55146;47.468;18.806;2023-06-19T05:19:06;14.68;;;9.05;;
68300;SDS011;55146;47.468;18.806;2023-06-19T05:21:31;14.77;;;9.37;;
68300;SDS011;55146;47.468;18.806;2023-06-19T05:23:57;16.00;;;10.13;;
68300;SDS011;55146;47.468;18.806;2023-06-19T05:26:22;13.43;;;9.77;;
68300;SDS011;55146;47.468;18.806;2023-06-19T05:28:48;12.07;;;9.07;;
68300;SDS011;55146;47.468;18.806;2023-06-19T05:31:15;14.80;;;10.43;;
68300;SDS011;55146;47.468;18.806;2023-06-19T05:33:40;17.10;;;10.87;;
68300;SDS011;55146;47.468;18.806;2023-06-19T05:36:06;14.50;;;10.00;;
68300;SDS011;55146;47.468;18.806;2023-06-19T05:38:32;15.10;;;10.23;;
68300;SDS011;55146;47.468;18.806;2023-06-19T05:40:58;13.50;;;10.77;;
68300;SDS011;55146;47.468;18.806;2023-06-19T05:43:24;14.52;;;9.93;;
68300;SDS011;55146;47.468;18.806;2023-06-19T05:45:55;13.40;;;10.13;;
68300;SDS011;55146;47.468;18.806;2023-06-19T05:48:27;15.50;;;9.68;;
68300;SDS011;55146;47.468;18.806;2023-06-19T05:50:52;13.43;;;8.70;;
68300;SDS011;55146;47.468;18.806;2023-06-19T05:53:18;11.50;;;8.80;;
68300;SDS011;55146;47.468;18.806;2023-06-19T05:55:43;12.30;;;8.63;;
68300;SDS011;55146;47.468;18.806;2023-06-19T05:58:09;10.50;;;8.10;;
68300;SDS011;55146;47.468;18.806;2023-06-19T06:00:34;10.50;;;7.57;;
68300;SDS011;55146;47.468;18.806;2023-06-19T06:03:00;9.63;;;7.30;;
68300;SDS011;55146;47.468;18.806;2023-06-19T06:05:26;11.87;;;8.03;;
68300;SDS011;55146;47.468;18.806;2023-06-19T06:07:51;9.93;;;6.87;;
68300;SDS011;55146;47.468;18.806;2023-06-19T06:10:21;10.93;;;6.97;;
68300;SDS011;55146;47.468;18.806;2023-06-19T06:12:48;9.98;;;6.60;;
68300;SDS011;55146;47.468;18.806;2023-06-19T06:15:14;9.87;;;7.13;;
68300;SDS011;55146;47.468;18.806;2023-06-19T06:17:40;9.45;;;6.82;;
68300;SDS011;55146;47.468;18.806;2023-06-19T06:20:06;12.67;;;7.77;;
68300;SDS011;55146;47.468;18.806;2023-06-19T06:22:37;9.40;;;6.82;;
68300;SDS011;55146;47.468;18.806;2023-06-19T06:25:03;15.88;;;7.03;;
68300;SDS011;55146;47.468;18.806;2023-06-19T06:27:29;12.07;;;7.30;;
68300;SDS011;55146;47.468;18.806;2023-06-19T06:29:54;11.17;;;7.30;;
68300;SDS011;55146;47.468;18.806;2023-06-19T06:32:20;9.80;;;7.10;;
68300;SDS011;55146;47.468;18.806;2023-06-19T06:34:45;12.48;;;7.15;;
68300;SDS011;55146;47.468;18.806;2023-06-19T06:37:11;10.20;;;7.27;;
68300;SDS011;55146;47.468;18.806;2023-06-19T06:39:36;9.23;;;6.87;;
68300;SDS011;55146;47.468;18.806;2023-06-19T06:42:01;10.53;;;6.60;;
68300;SDS011;55146;47.468;18.806;2023-06-19T06:44:27;10.63;;;7.22;;
68300;SDS011;55146;47.468;18.806;2023-06-19T06:46:52;10.57;;;6.60;;
68300;SDS011;55146;47.468;18.806;2023-06-19T06:49:18;11.63;;;6.77;;
68300;SDS011;55146;47.468;18.806;2023-06-19T06:51:43;9.17;;;7.00;;
68300;SDS011;55146;47.468;18.806;2023-06-19T06:54:09;13.13;;;6.78;;
68300;SDS011;55146;47.468;18.806;2023-06-19T06:56:34;9.60;;;6.73;;
68300;SDS011;55146;47.468;18.806;2023-06-19T06:59:00;9.83;;;6.50;;
68300;SDS011;55146;47.468;18.806;2023-06-19T07:01:25;10.07;;;7.30;;
68300;SDS011;55146;47.468;18.806;2023-06-19T07:03:51;10.82;;;6.95;;
68300;SDS011;55146;47.468;18.806;2023-06-19T07:06:17;9.77;;;6.47;;
68300;SDS011;55146;47.468;18.806;2023-06-19T07:08:42;9.57;;;6.62;;
68300;SDS011;55146;47.468;18.806;2023-06-19T07:11:08;9.57;;;7.03;;
68300;SDS011;55146;47.468;18.806;2023-06-19T07:13:33;8.57;;;6.57;;
68300;SDS011;55146;47.468;18.806;2023-06-19T07:15:58;9.93;;;6.13;;
68300;SDS011;55146;47.468;18.806;2023-06-19T07:18:26;9.43;;;6.55;;
68300;SDS011;55146;47.468;18.806;2023-06-19T07:20:51;9.73;;;5.77;;
68300;SDS011;55146;47.468;18.806;2023-06-19T07:23:17;10.90;;;6.47;;
68300;SDS011;55146;47.468;18.806;2023-06-19T07:25:43;7.72;;;5.68;;
68300;SDS011;55146;47.468;18.806;2023-06-19T07:28:10;8.18;;;6.00;;
68300;SDS011;55146;47.468;18.806;2023-06-19T07:30:36;8.57;;;6.60;;
68300;SDS011;55146;47.468;18.806;2023-06-19T07:33:01;13.00;;;7.43;;
68300;SDS011;55146;47.468;18.806;2023-06-19T07:35:26;10.23;;;6.67;;
68300;SDS011;55146;47.468;18.806;2023-06-19T07:37:52;11.53;;;6.63;;
68300;SDS011;55146;47.468;18.806;2023-06-19T07:40:17;11.53;;;6.53;;
68300;SDS011;55146;47.468;18.806;2023-06-19T07:42:43;12.07;;;6.50;;
68300;SDS011;55146;47.468;18.806;2023-06-19T07:45:08;8.07;;;5.37;;
68300;SDS011;55146;47.468;18.806;2023-06-19T07:47:34;7.72;;;5.70;;
68300;SDS011;55146;47.468;18.806;2023-06-19T07:49:59;8.03;;;6.13;;
68300;SDS011;55146;47.468;18.806;2023-06-19T07:52:25;8.80;;;6.30;;
68300;SDS011;55146;47.468;18.806;2023-06-19T07:54:51;9.73;;;6.50;;
68300;SDS011;55146;47.468;18.806;2023-06-19T07:57:17;9.50;;;5.43;;
68300;SDS011;55146;47.468;18.806;2023-06-19T07:59:43;9.67;;;6.23;;
68300;SDS011;55146;47.468;18.806;2023-06-19T08:02:09;10.20;;;7.20;;
68300;SDS011;55146;47.468;18.806;2023-06-19T08:04:35;8.68;;;6.00;;
68300;SDS011;55146;47.468;18.806;2023-06-19T08:07:00;9.63;;;5.60;;
68300;SDS011;55146;47.468;18.806;2023-06-19T08:09:26;12.23;;;6.93;;
68300;SDS011;55146;47.468;18.806;2023-06-19T08:11:51;10.47;;;7.10;;
68300;SDS011;55146;47.468;18.806;2023-06-19T08:14:16;8.53;;;5.87;;
68300;SDS011;55146;47.468;18.806;2023-06-19T08:16:42;9.80;;;6.83;;
68300;SDS011;55146;47.468;18.806;2023-06-19T08:19:07;8.20;;;5.93;;
68300;SDS011;55146;47.468;18.806;2023-06-19T08:21:32;9.20;;;6.03;;
68300;SDS011;55146;47.468;18.806;2023-06-19T08:23:58;8.63;;;6.30;;
68300;SDS011;55146;47.468;18.806;2023-06-19T08:26:23;10.60;;;7.27;;
68300;SDS011;55146;47.468;18.806;2023-06-19T08:28:49;10.53;;;6.80;;
68300;SDS011;55146;47.468;18.806;2023-06-19T08:31:14;12.23;;;6.73;;
68300;SDS011;55146;47.468;18.806;2023-06-19T08:33:39;11.53;;;6.87;;
68300;SDS011;55146;47.468;18.806;2023-06-19T08:36:05;11.00;;;6.20;;
68300;SDS011;55146;47.468;18.806;2023-06-19T08:38:30;11.43;;;6.83;;
68300;SDS011;55146;47.468;18.806;2023-06-19T08:40:56;11.30;;;6.53;;
68300;SDS011;55146;47.468;18.806;2023-06-19T08:43:21;11.00;;;6.97;;
68300;SDS011;55146;47.468;18.806;2023-06-19T08:46:03;9.38;;;6.55;;
68300;SDS011;55146;47.468;18.806;2023-06-19T08:48:35;12.20;;;7.10;;
68300;SDS011;55146;47.468;18.806;2023-06-19T08:51:02;10.73;;;6.32;;
68300;SDS011;55146;47.468;18.806;2023-06-19T08:53:29;9.85;;;6.20;;
68300;SDS011;55146;47.468;18.806;2023-06-19T08:55:54;9.73;;;6.87;;
68300;SDS011;55146;47.468;18.806;2023-06-19T08:58:22;10.98;;;7.07;;
68300;SDS011;55146;47.468;18.806;2023-06-19T09:00:48;10.45;;;6.18;;
68300;SDS011;55146;47.468;18.806;2023-06-19T09:03:18;9.53;;;6.50;;
68300;SDS011;55146;47.468;18.806;2023-06-19T09:05:49;9.90;;;6.95;;
68300;SDS011;55146;47.468;18.806;2023-06-19T09:08:16;9.18;;;7.12;;
68300;SDS011;55146;47.468;18.806;2023-06-19T09:10:42;8.68;;;6.80;;
68300;SDS011;55146;47.468;18.806;2023-06-19T09:13:08;8.63;;;6.97;;
68300;SDS011;55146;47.468;18.806;2023-06-19T09:15:35;10.82;;;7.20;;
68300;SDS011;55146;47.468;18.806;2023-06-19T09:18:06;10.68;;;7.40;;
68300;SDS011;55146;47.468;18.806;2023-06-19T09:20:40;11.82;;;6.35;;
68300;SDS011;55146;47.468;18.806;2023-06-19T09:23:12;9.97;;;6.17;;
68300;SDS011;55146;47.468;18.806;2023-06-19T09:28:20;10.07;;;6.05;;
68300;SDS011;55146;47.468;18.806;2023-06-19T09:31:00;9.75;;;6.97;;
68300;SDS011;55146;47.468;18.806;2023-06-19T09:33:27;10.40;;;6.30;;
68300;SDS011;55146;47.468;18.806;2023-06-19T09:35:54;10.37;;;6.43;;
68300;SDS011;55146;47.468;18.806;2023-06-19T09:38:24;8.43;;;6.60;;
68300;SDS011;55146;47.468;18.806;2023-06-19T09:40:52;10.23;;;5.97;;
68300;SDS011;55146;47.468;18.806;2023-06-19T09:43:25;11.07;;;6.70;;
68300;SDS011;55146;47.468;18.806;2023-06-19T09:45:55;10.18;;;5.82;;
68300;SDS011;55146;47.468;18.806;2023-06-19T09:48:23;10.80;;;6.20;;
68300;SDS011;55146;47.468;18.806;2023-06-19T09:50:54;10.43;;;5.40;;
68300;SDS011;55146;47.468;18.806;2023-06-19T09:53:24;10.75;;;5.78;;
68300;SDS011;55146;47.468;18.806;2023-06-19T09:55:50;11.10;;;6.10;;
68300;SDS011;55146;47.468;18.806;2023-06-19T09:58:17;10.02;;;6.30;;
68300;SDS011;55146;47.468;18.806;2023-06-19T10:00:45;9.00;;;5.97;;
68300;SDS011;55146;47.468;18.806;2023-06-19T10:03:12;11.18;;;6.03;;
68300;SDS011;55146;47.468;18.806;2023-06-19T10:05:39;8.57;;;5.72;;
68300;SDS011;55146;47.468;18.806;2023-06-19T10:08:05;11.32;;;6.60;;
68300;SDS011;55146;47.468;18.806;2023-06-19T10:10:31;11.45;;;6.75;;
68300;SDS011;55146;47.468;18.806;2023-06-19T10:12:59;10.73;;;6.70;;
68300;SDS011;55146;47.468;18.806;2023-06-19T10:15:43;11.95;;;6.95;;
68300;SDS011;55146;47.468;18.806;2023-06-19T10:18:15;12.88;;;6.25;;
68300;SDS011;55146;47.468;18.806;2023-06-19T10:20:42;6.95;;;5.43;;
68300;SDS011;55146;47.468;18.806;2023-06-19T10:23:12;8.30;;;6.00;;
68300;SDS011;55146;47.468;18.806;2023-06-19T10:25:47;14.60;;;6.20;;
68300;SDS011;55146;47.468;18.806;2023-06-19T10:28:17;13.13;;;6.68;;
68300;SDS011;55146;47.468;18.806;2023-06-19T10:33:23;10.23;;;6.72;;
68300;SDS011;55146;47.468;18.806;2023-06-19T10:35:49;8.73;;;5.85;;
68300;SDS011;55146;47.468;18.806;2023-06-19T10:38:15;13.87;;;6.30;;
68300;SDS011;55146;47.468;18.806;2023-06-19T10:40:42;10.27;;;6.37;;
68300;SDS011;55146;47.468;18.806;2023-06-19T10:43:08;11.55;;;6.32;;
68300;SDS011;55146;47.468;18.806;2023-06-19T10:45:33;11.80;;;6.47;;
68300;SDS011;55146;47.468;18.806;2023-06-19T10:48:02;10.20;;;6.23;;
68300;SDS011;55146;47.468;18.806;2023-06-19T10:50:29;9.35;;;5.90;;
68300;SDS011;55146;47.468;18.806;2023-06-19T10:52:55;8.20;;;6.20;;
68300;SDS011;55146;47.468;18.806;2023-06-19T10:55:20;9.50;;;6.12;;
68300;SDS011;55146;47.468;18.806;2023-06-19T10:57:47;10.00;;;6.67;;
68300;SDS011;55146;47.468;18.806;2023-06-19T11:00:27;8.90;;;6.15;;
68300;SDS011;55146;47.468;18.806;2023-06-19T11:02:55;8.10;;;6.32;;
68300;SDS011;55146;47.468;18.806;2023-06-19T11:05:23;8.35;;;5.85;;
68300;SDS011;55146;47.468;18.806;2023-06-19T11:07:53;12.02;;;6.85;;
68300;SDS011;55146;47.468;18.806;2023-06-19T11:10:23;7.53;;;5.87;;
68300;SDS011;55146;47.468;18.806;2023-06-19T11:12:53;10.60;;;5.75;;
68300;SDS011;55146;47.468;18.806;2023-06-19T11:15:31;8.68;;;6.03;;
68300;SDS011;55146;47.468;18.806;2023-06-19T11:17:59;9.07;;;6.62;;
68300;SDS011;55146;47.468;18.806;2023-06-19T11:20:26;14.73;;;6.60;;
68300;SDS011;55146;47.468;18.806;2023-06-19T11:22:55;9.97;;;7.07;;
68300;SDS011;55146;47.468;18.806;2023-06-19T11:25:22;10.73;;;7.28;;
68300;SDS011;55146;47.468;18.806;2023-06-19T11:27:48;10.82;;;6.15;;
68300;SDS011;55146;47.468;18.806;2023-06-19T11:30:18;9.57;;;6.70;;
68300;SDS011;55146;47.468;18.806;2023-06-19T11:32:46;9.90;;;6.68;;
68300;SDS011;55146;47.468;18.806;2023-06-19T11:35:15;9.50;;;6.78;;
68300;SDS011;55146;47.468;18.806;2023-06-19T11:37:42;9.95;;;6.15;;
68300;SDS011;55146;47.468;18.806;2023-06-19T11:40:12;9.27;;;6.53;;
68300;SDS011;55146;47.468;18.806;2023-06-19T11:45:12;9.98;;;6.43;;
68300;SDS011;55146;47.468;18.806;2023-06-19T11:47:37;10.07;;;7.00;;
68300;SDS011;55146;47.468;18.806;2023-06-19T11:50:06;9.15;;;6.85;;
68300;SDS011;55146;47.468;18.806;2023-06-19T11:52:32;12.33;;;7.00;;
68300;SDS011;55146;47.468;18.806;2023-06-19T11:54:57;8.48;;;6.32;;
68300;SDS011;55146;47.468;18.806;2023-06-19T11:57:23;10.17;;;7.27;;
68300;SDS011;55146;47.468;18.806;2023-06-19T11:59:48;11.13;;;7.20;;
68300;SDS011;55146;47.468;18.806;2023-06-19T12:02:13;8.70;;;6.90;;
68300;SDS011;55146;47.468;18.806;2023-06-19T12:04:39;9.30;;;6.80;;
68300;SDS011;55146;47.468;18.806;2023-06-19T12:07:04;9.07;;;6.50;;
68300;SDS011;55146;47.468;18.806;2023-06-19T12:09:30;11.97;;;7.67;;
68300;SDS011;55146;47.468;18.806;2023-06-19T12:11:59;8.50;;;6.50;;
68300;SDS011;55146;47.468;18.806;2023-06-19T12:14:25;12.37;;;6.93;;
68300;SDS011;55146;47.468;18.806;2023-06-19T12:16:51;10.33;;;6.63;;
68300;SDS011;55146;47.468;18.806;2023-06-19T12:19:16;10.27;;;7.40;;
68300;SDS011;55146;47.468;18.806;2023-06-19T12:21:42;10.93;;;7.03;;
68300;SDS011;55146;47.468;18.806;2023-06-19T12:24:07;11.13;;;6.80;;
68300;SDS011;55146;47.468;18.806;2023-06-19T12:26:34;9.80;;;7.03;;
68300;SDS011;55146;47.468;18.806;2023-06-19T12:29:02;9.00;;;6.60;;
68300;SDS011;55146;47.468;18.806;2023-06-19T12:31:28;8.40;;;6.23;;
68300;SDS011;55146;47.468;18.806;2023-06-19T12:33:54;11.85;;;7.40;;
68300;SDS011;55146;47.468;18.806;2023-06-19T12:36:19;13.63;;;6.90;;
68300;SDS011;55146;47.468;18.806;2023-06-19T12:38:45;8.53;;;6.70;;
68300;SDS011;55146;47.468;18.806;2023-06-19T12:41:12;9.77;;;7.28;;
68300;SDS011;55146;47.468;18.806;2023-06-19T12:43:37;11.97;;;6.63;;
68300;SDS011;55146;47.468;18.806;2023-06-19T12:46:03;10.27;;;7.40;;
68300;SDS011;55146;47.468;18.806;2023-06-19T12:48:29;10.73;;;7.18;;
68300;SDS011;55146;47.468;18.806;2023-06-19T12:50:54;12.17;;;7.27;;
68300;SDS011;55146;47.468;18.806;2023-06-19T12:53:20;9.67;;;7.40;;
68300;SDS011;55146;47.468;18.806;2023-06-19T12:55:46;9.27;;;6.82;;
68300;SDS011;55146;47.468;18.806;2023-06-19T12:58:12;9.03;;;7.53;;
68300;SDS011;55146;47.468;18.806;2023-06-19T13:00:37;10.23;;;6.78;;
68300;SDS011;55146;47.468;18.806;2023-06-19T13:03:03;9.60;;;7.03;;
68300;SDS011;55146;47.468;18.806;2023-06-19T13:05:28;12.13;;;6.77;;
68300;SDS011;55146;47.468;18.806;2023-06-19T13:07:54;10.60;;;7.05;;
68300;SDS011;55146;47.468;18.806;2023-06-19T13:10:19;9.07;;;7.73;;
68300;SDS011;55146;47.468;18.806;2023-06-19T13:12:45;11.23;;;7.20;;
68300;SDS011;55146;47.468;18.806;2023-06-19T13:15:10;11.90;;;6.37;;
68300;SDS011;55146;47.468;18.806;2023-06-19T13:17:36;10.73;;;7.00;;
68300;SDS011;55146;47.468;18.806;2023-06-19T13:20:01;8.87;;;6.47;;
68300;SDS011;55146;47.468;18.806;2023-06-19T13:22:28;12.18;;;6.30;;
68300;SDS011;55146;47.468;18.806;2023-06-19T13:24:54;9.97;;;7.27;;
68300;SDS011;55146;47.468;18.806;2023-06-19T13:27:19;11.03;;;7.83;;
68300;SDS011;55146;47.468;18.806;2023-06-19T13:29:44;16.33;;;7.77;;
68300;SDS011;55146;47.468;18.806;2023-06-19T13:32:10;9.05;;;7.32;;
68300;SDS011;55146;47.468;18.806;2023-06-19T13:34:35;9.80;;;7.30;;
68300;SDS011;55146;47.468;18.806;2023-06-19T13:37:00;11.20;;;6.80;;
68300;SDS011;55146;47.468;18.806;2023-06-19T13:39:26;12.23;;;7.40;;
68300;SDS011;55146;47.468;18.806;2023-06-19T13:41:51;10.07;;;8.53;;
68300;SDS011;55146;47.468;18.806;2023-06-19T13:44:17;9.43;;;6.85;;
68300;SDS011;55146;47.468;18.806;2023-06-19T13:46:44;11.10;;;7.17;;
68300;SDS011;55146;47.468;18.806;2023-06-19T13:49:09;10.77;;;6.60;;
68300;SDS011;55146;47.468;18.806;2023-06-19T13:51:36;10.02;;;7.50;;
68300;SDS011;55146;47.468;18.806;2023-06-19T13:54:01;10.53;;;7.17;;
68300;SDS011;55146;47.468;18.806;2023-06-19T13:56:29;10.88;;;7.32;;
68300;SDS011;55146;47.468;18.806;2023-06-19T13:58:55;9.47;;;7.70;;
68300;SDS011;55146;47.468;18.806;2023-06-19T14:01:20;8.48;;;7.00;;
68300;SDS011;55146;47.468;18.806;2023-06-19T14:03:45;9.97;;;7.30;;
68300;SDS011;55146;47.468;18.806;2023-06-19T14:06:11;8.77;;;7.10;;
68300;SDS011;55146;47.468;18.806;2023-06-19T14:08:37;9.75;;;6.47;;
68300;SDS011;55146;47.468;18.806;2023-06-19T14:11:04;11.10;;;7.18;;
68300;SDS011;55146;47.468;18.806;2023-06-19T14:13:30;11.57;;;7.03;;
68300;SDS011;55146;47.468;18.806;2023-06-19T14:15:55;12.33;;;7.13;;
68300;SDS011;55146;47.468;18.806;2023-06-19T14:18:21;11.15;;;7.03;;
68300;SDS011;55146;47.468;18.806;2023-06-19T14:20:46;10.00;;;7.23;;
68300;SDS011;55146;47.468;18.806;2023-06-19T14:23:12;9.53;;;7.70;;
68300;SDS011;55146;47.468;18.806;2023-06-19T14:25:37;10.10;;;6.95;;
68300;SDS011;55146;47.468;18.806;2023-06-19T14:28:03;10.30;;;8.20;;
68300;SDS011;55146;47.468;18.806;2023-06-19T14:30:29;9.60;;;7.03;;